createdAt,value
2022-12-31T01:23:06.720Z,60.10
2022-12-31T01:26:08.455Z,62.30
2022-12-31T01:28:46.630Z,58.50
2022-12-31T01:31:18.523Z,64.40
2022-12-31T01:33:52.138Z,65.60
2022-12-31T01:36:29.846Z,70.80
2022-12-31T01:54:44.255Z,82.50
2022-12-31T01:57:12.476Z,80.50
2022-12-31T01:59:40.444Z,76.20
2022-12-31T02:02:07.532Z,73.80
2022-12-31T02:05:23.290Z,77.60
2022-12-31T02:08:21.863Z,67.60
2022-12-31T02:29:11.663Z,60.50
2022-12-31T02:32:40.460Z,68.40
2022-12-31T02:35:20.243Z,62.40
2022-12-31T02:38:15.826Z,64.10
2022-12-31T02:41:01.594Z,68.60
2022-12-31T02:43:38.653Z,67.90
2022-12-31T02:50:56.207Z,77.30
2022-12-31T02:54:21.311Z,83.20
2022-12-31T03:04:29.141Z,64.50
2022-12-31T03:07:23.591Z,58.50
2022-12-31T03:13:08.339Z,69.30
2022-12-31T03:15:43.387Z,71.40
2022-12-31T03:18:16.145Z,71.80
2022-12-31T03:40:00.243Z,53.30
2022-12-31T03:42:27.504Z,58.10
2022-12-31T03:44:54.596Z,57.20
2022-12-31T03:47:21.726Z,55.70
2022-12-31T03:49:48.775Z,57.10
2022-12-31T03:52:16.568Z,59.90
2022-12-31T03:54:51.721Z,58.40
2022-12-31T03:57:24.132Z,60.00
2022-12-31T04:02:48.122Z,63.50
2022-12-31T04:05:19.845Z,57.60
2022-12-31T04:07:48.959Z,64.20
2022-12-31T04:10:22.212Z,61.30
2022-12-31T04:12:55.232Z,69.70
2022-12-31T04:15:25.923Z,71.00
2022-12-31T04:17:57.311Z,68.20
2022-12-31T04:20:25.054Z,64.00
2022-12-31T04:22:52.135Z,60.90
2022-12-31T04:30:07.760Z,52.50
2022-12-31T04:33:30.401Z,50.20
2022-12-31T04:36:06.864Z,47.70
2022-12-31T04:39:17.780Z,46.10
2022-12-31T05:07:31.794Z,42.10
2022-12-31T05:10:02.956Z,44.10
2022-12-31T06:32:10.019Z,57.10
2022-12-31T06:38:11.535Z,63.20
2022-12-31T06:40:43.057Z,70.60
2022-12-31T06:51:37.179Z,58.30
2022-12-31T06:54:08.045Z,61.50
2022-12-31T07:16:19.601Z,56.20
2022-12-31T07:38:31.207Z,58.10
2022-12-31T07:41:20.993Z,46.80
2022-12-31T07:44:10.042Z,48.00
2022-12-31T07:46:57.778Z,50.40
2022-12-31T07:49:51.783Z,47.20
2022-12-31T08:00:41.339Z,47.10
2022-12-31T08:08:11.933Z,49.10
2022-12-31T08:11:10.753Z,51.30
2022-12-31T08:14:18.736Z,51.70
2022-12-31T08:17:22.917Z,51.80
2022-12-31T08:20:15.439Z,56.60
2022-12-31T08:23:01.607Z,52.50
2022-12-31T08:26:06.799Z,53.80
2022-12-31T08:29:05.124Z,52.50
2022-12-31T08:35:36.688Z,45.00
2022-12-31T08:38:33.093Z,44.50
2022-12-31T08:41:50.861Z,43.70
2022-12-31T08:45:50.910Z,37.20
2022-12-31T08:49:20.782Z,37.80
2022-12-31T08:51:55.280Z,37.80
2022-12-31T08:54:42.115Z,40.30
2022-12-31T08:57:44.974Z,38.50
2022-12-31T09:00:18.832Z,39.20
2022-12-31T09:06:51.428Z,38.10
2022-12-31T09:10:47.435Z,39.30
2022-12-31T09:14:14.400Z,40.70
2022-12-31T09:29:46.175Z,48.40
2022-12-31T09:43:01.107Z,48.60
2022-12-31T09:50:33.060Z,48.20
2022-12-31T09:53:19.447Z,47.00
2022-12-31T09:56:06.944Z,43.40
2022-12-31T10:25:04.648Z,50.70
2022-12-31T10:27:55.215Z,52.40
2022-12-31T10:30:27.729Z,54.80
2022-12-31T10:33:08.811Z,50.80
2022-12-31T10:39:24.634Z,47.20
2022-12-31T10:42:24.799Z,49.90
2022-12-31T10:45:32.905Z,48.70
2022-12-31T10:48:26.507Z,48.40
2022-12-31T10:54:16.165Z,44.60
2022-12-31T10:57:16.561Z,43.70
2022-12-31T11:00:42.959Z,42.30
2022-12-31T11:13:23.550Z,37.10
2022-12-31T11:16:04.667Z,34.70
2022-12-31T11:23:03.504Z,42.50
2022-12-31T11:25:50.055Z,37.70
2022-12-31T11:29:12.580Z,37.20
2022-12-31T11:39:57.427Z,34.90
2022-12-31T11:51:50.919Z,31.10
2022-12-31T12:40:33.715Z,45.70
2022-12-31T12:43:03.309Z,50.70
2022-12-31T12:45:51.878Z,48.70
2022-12-31T12:48:30.992Z,48.80
2022-12-31T12:50:59.734Z,49.50
2022-12-31T12:53:36.938Z,52.20
2022-12-31T12:56:52.628Z,51.00
2022-12-31T12:59:20.692Z,50.30
2022-12-31T13:02:11.518Z,49.60
2022-12-31T13:04:45.217Z,53.00
2022-12-31T13:07:21.504Z,50.40
2022-12-31T13:58:46.736Z,49.40
2022-12-31T14:01:33.619Z,49.30
2022-12-31T14:04:15.138Z,48.20
2022-12-31T14:06:55.220Z,48.70
2022-12-31T14:15:51.932Z,52.50
2022-12-31T14:18:41.961Z,57.60
2022-12-31T14:21:42.462Z,66.90
2022-12-31T14:24:19.048Z,85.80
2022-12-31T14:26:54.153Z,90.20
2022-12-31T14:29:40.595Z,91.60
2022-12-31T14:32:17.624Z,81.30
2022-12-31T14:37:37.084Z,95.70
2022-12-31T14:40:14.549Z,81.40
2022-12-31T15:01:18.992Z,84.30
2022-12-31T15:03:51.626Z,84.70
2022-12-31T15:19:46.441Z,82.50
2022-12-31T15:22:33.080Z,92.80
2022-12-31T15:27:37.199Z,88.20
2022-12-31T15:30:09.466Z,91.20
2022-12-31T15:32:49.393Z,137.50
2022-12-31T15:35:22.840Z,144.70
2022-12-31T15:38:16.969Z,173.90
2022-12-31T15:40:52.089Z,116.80
2022-12-31T15:44:01.415Z,104.20
2022-12-31T15:46:33.497Z,83.80
2022-12-31T15:49:15.317Z,85.00
2022-12-31T15:51:46.121Z,81.30
2022-12-31T15:54:42.682Z,85.40
2022-12-31T15:57:29.424Z,89.00
2022-12-31T16:00:04.063Z,96.60
2022-12-31T16:18:20.823Z,87.60
2022-12-31T16:20:51.366Z,131.40
2022-12-31T16:23:25.305Z,174.30
2022-12-31T16:25:58.111Z,192.70
2022-12-31T16:28:36.839Z,131.80
2022-12-31T16:31:18.068Z,83.00
2022-12-31T16:33:48.272Z,78.50
2022-12-31T16:36:22.042Z,84.80
2022-12-31T16:38:55.159Z,113.90
2022-12-31T16:41:25.301Z,129.50
2022-12-31T16:51:45.326Z,77.20
2022-12-31T16:54:54.852Z,77.80
2022-12-31T16:57:25.593Z,89.40
2022-12-31T17:00:00.284Z,82.50
2022-12-31T17:02:38.937Z,67.80
2022-12-31T17:21:14.749Z,122.20
2022-12-31T17:23:53.474Z,126.40
2022-12-31T17:26:26.287Z,119.90
2022-12-31T17:28:56.273Z,123.20
2022-12-31T17:31:39.150Z,94.00
2022-12-31T17:34:21.348Z,92.60
2022-12-31T17:37:11.585Z,127.70
2022-12-31T17:43:28.712Z,96.80
2022-12-31T17:49:38.411Z,91.40
2022-12-31T17:52:14.314Z,86.50
2022-12-31T17:54:42.336Z,64.80
2022-12-31T17:57:24.073Z,82.00
2022-12-31T17:59:52.002Z,73.60
2022-12-31T18:02:22.471Z,71.10
2022-12-31T18:09:06.705Z,112.10
2022-12-31T18:11:36.338Z,100.40
2022-12-31T18:14:04.743Z,72.60
2022-12-31T18:17:16.904Z,75.20
2022-12-31T18:22:35.660Z,167.10
2022-12-31T18:25:06.247Z,103.20
2022-12-31T18:27:34.768Z,84.30
2022-12-31T18:30:05.637Z,108.70
2022-12-31T18:32:37.033Z,76.10
2022-12-31T18:35:06.429Z,59.80
2022-12-31T18:37:35.105Z,56.50
2022-12-31T18:40:02.223Z,40.20
2022-12-31T18:42:29.728Z,76.60
2022-12-31T18:44:57.004Z,48.10
2022-12-31T18:47:24.816Z,69.20
2022-12-31T18:49:52.831Z,57.60
2022-12-31T18:52:22.977Z,50.50
2022-12-31T18:54:50.476Z,59.30
2022-12-31T18:57:18.523Z,63.20
2022-12-31T18:59:46.396Z,58.40
2022-12-31T19:02:20.595Z,55.10
2022-12-31T19:04:48.504Z,62.50
2022-12-31T19:07:15.657Z,89.50
2022-12-31T19:09:45.678Z,98.80
2022-12-31T19:12:14.832Z,77.40
2022-12-31T19:14:45.470Z,76.50
2022-12-31T19:17:21.357Z,72.90
2022-12-31T19:19:49.493Z,71.90
2022-12-31T19:22:17.451Z,67.40
2022-12-31T19:24:45.514Z,74.50
2022-12-31T19:54:12.447Z,49.40
2022-12-31T19:56:39.941Z,63.60
2022-12-31T19:59:09.752Z,80.80
2022-12-31T20:01:38.677Z,60.20
2022-12-31T20:04:07.660Z,63.00
2022-12-31T20:06:36.352Z,62.20
2022-12-31T20:09:04.544Z,84.50
2022-12-31T20:11:32.473Z,89.00
2022-12-31T20:14:00.335Z,68.00
2022-12-31T20:16:29.418Z,67.30
2022-12-31T20:18:58.283Z,57.00
2022-12-31T20:21:28.668Z,45.20
2022-12-31T20:23:56.779Z,63.30
2022-12-31T20:26:25.570Z,86.70
2022-12-31T20:28:53.647Z,84.60
2022-12-31T20:31:24.611Z,84.00
2022-12-31T20:33:55.372Z,52.70
2022-12-31T20:36:23.853Z,82.60
2022-12-31T20:38:51.687Z,62.50
2022-12-31T20:41:22.406Z,48.40
2022-12-31T20:43:50.842Z,49.20
2022-12-31T20:46:24.292Z,49.50
2022-12-31T20:49:01.160Z,50.90
2022-12-31T20:51:31.957Z,39.90
2022-12-31T20:54:11.319Z,45.40
2022-12-31T20:56:41.594Z,58.10
2022-12-31T20:59:18.465Z,132.90
2022-12-31T21:02:19.857Z,119.10
2022-12-31T21:04:33.799Z,128.60
2022-12-31T21:07:04.525Z,82.90
2022-12-31T21:09:31.941Z,57.00
2022-12-31T21:12:19.397Z,36.60
2022-12-31T21:14:47.544Z,32.30
2022-12-31T21:17:16.957Z,40.40
2022-12-31T21:19:49.049Z,52.10
2022-12-31T21:22:16.709Z,47.40
2022-12-31T21:24:45.005Z,50.90
2022-12-31T21:27:12.775Z,45.60
2022-12-31T21:30:01.933Z,52.10
2022-12-31T21:32:28.535Z,77.30
2022-12-31T21:35:31.497Z,83.90
2022-12-31T21:37:58.178Z,67.60
2022-12-31T21:40:29.400Z,83.20
2022-12-31T21:48:34.238Z,51.10
2022-12-31T21:51:12.505Z,62.90
2022-12-31T21:53:42.322Z,67.60
2022-12-31T21:56:11.607Z,86.60
2022-12-31T21:59:04.989Z,345.60
2022-12-31T22:01:51.700Z,505.00
2022-12-31T22:04:59.835Z,352.90
2022-12-31T22:07:08.460Z,164.00
2022-12-31T22:09:44.136Z,187.00
2022-12-31T22:12:52.675Z,204.50
2022-12-31T22:15:20.666Z,350.00
2022-12-31T22:17:49.072Z,230.60
2022-12-31T22:20:27.016Z,330.80
2022-12-31T22:22:55.538Z,552.10
2022-12-31T22:25:23.797Z,461.90
2022-12-31T22:28:27.520Z,384.90
2022-12-31T22:30:40.959Z,256.10
2022-12-31T22:33:08.858Z,232.40
2022-12-31T22:35:37.510Z,213.30
2022-12-31T22:38:11.652Z,200.00
2022-12-31T22:40:43.118Z,220.60
2022-12-31T22:43:11.600Z,236.00
2022-12-31T22:46:13.891Z,234.60
2022-12-31T22:48:42.314Z,229.50
2022-12-31T22:51:11.793Z,250.40
2022-12-31T22:53:43.126Z,268.50
2022-12-31T22:56:13.460Z,251.00
2022-12-31T22:58:41.498Z,203.00
2022-12-31T23:01:21.526Z,160.80
2022-12-31T23:03:50.757Z,94.10
2022-12-31T23:06:19.728Z,115.20
2022-12-31T23:09:06.948Z,99.10
2022-12-31T23:11:38.441Z,89.20
2022-12-31T23:14:25.713Z,119.90
2022-12-31T23:20:19.288Z,156.20
2022-12-31T23:23:06.155Z,190.40
2022-12-31T23:25:36.465Z,147.40
2022-12-31T23:28:09.120Z,107.10
2022-12-31T23:30:39.065Z,89.40
2022-12-31T23:33:08.015Z,135.70
2022-12-31T23:35:35.701Z,178.10
2022-12-31T23:38:07.184Z,181.60
2022-12-31T23:40:38.470Z,188.40
2022-12-31T23:43:08.196Z,182.50
2022-12-31T23:45:36.766Z,157.40
2022-12-31T23:52:29.195Z,149.70
2022-12-31T23:54:56.803Z,148.50
2022-12-31T23:57:24.946Z,140.20
2022-12-31T23:59:52.589Z,119.60
